Time;durP1;ratioP1;P1;durP2;ratioP2;P2;SDS_P1;SDS_P2;PMS_P1;PMS_P2;Temp;Humidity;BMP_temperature;BMP_pressure;BME280_temperature;BME280_humidity;BME280_pressure;Samples;Min_cycle;Max_cycle;Signal;HPM_P1;HPM_P2
2023/03/14 00:01:20;;;;;;;4.73;3.50;;;;;;;5.01;61.36;94747.81;4989275;28;20688;-56
2023/03/14 00:03:45;;;;;;;5.23;3.60;;;;;;;4.95;60.38;94759.09;4989627;28;20218;-56
2023/03/14 00:06:11;;;;;;;5.97;4.37;;;;;;;4.87;61.28;94748.69;4989480;28;20248;-56
2023/03/14 00:08:37;;;;;;;5.33;3.67;;;;;;;4.89;60.72;94736.78;4989383;28;20271;-56
2023/03/14 00:11:08;;;;;;;6.23;3.63;;;;;;;4.97;60.80;94728.75;4989491;28;20198;-56
2023/03/14 00:13:34;;;;;;;4.63;3.37;;;;;;;4.95;60.25;94749.00;4989448;28;20203;-56
2023/03/14 00:16:11;;;;;;;6.53;3.30;;;;;;;4.91;60.76;94735.00;4989516;28;20274;-57
2023/03/14 00:18:38;;;;;;;6.43;3.33;;;;;;;5.07;58.60;94758.34;4989550;28;20211;-56
2023/03/14 00:21:05;;;;;;;4.90;3.60;;;;;;;4.96;60.27;94743.09;4989509;28;20646;-56
2023/03/14 00:23:33;;;;;;;5.33;3.40;;;;;;;5.03;59.82;94739.28;4988689;28;20192;-56
2023/03/14 00:26:04;;;;;;;4.23;3.37;;;;;;;5.08;58.83;94736.47;4989182;28;20209;-55
2023/03/14 00:28:29;;;;;;;7.13;3.03;;;;;;;5.08;59.27;94731.44;4988029;28;20275;-56
2023/03/14 00:30:55;;;;;;;7.67;3.37;;;;;;;4.95;60.71;94695.31;4989423;28;20267;-56
2023/03/14 00:33:20;;;;;;;6.90;2.93;;;;;;;5.08;60.53;94691.13;4989175;28;20554;-56
2023/03/14 00:35:54;;;;;;;4.83;3.27;;;;;;;5.14;60.17;94700.81;4989033;28;20211;-56
2023/03/14 00:38:19;;;;;;;4.33;3.43;;;;;;;5.10;59.47;94709.47;4989052;28;20203;-56
2023/03/14 00:40:44;;;;;;;5.43;3.70;;;;;;;5.11;59.90;94706.84;4988941;28;20218;-55
2023/03/14 00:43:10;;;;;;;5.50;3.47;;;;;;;5.15;60.92;94694.09;4989108;28;20187;-56
2023/03/14 00:45:35;;;;;;;6.07;3.47;;;;;;;5.13;60.79;94681.56;4988836;28;20286;-56
2023/03/14 00:48:00;;;;;;;5.33;3.40;;;;;;;5.20;61.49;94669.38;4988919;28;20247;-56
2023/03/14 00:50:26;;;;;;;5.83;3.37;;;;;;;5.39;60.01;94692.53;4988855;28;20210;-55
2023/03/14 00:52:52;;;;;;;8.67;4.30;;;;;;;5.26;61.00;94682.41;4987585;28;20200;-55
2023/03/14 00:55:17;;;;;;;5.30;3.50;;;;;;;5.20;61.62;94679.47;4988683;28;20258;-55
2023/03/14 00:57:43;;;;;;;4.83;3.50;;;;;;;5.34;59.79;94705.41;4989264;28;20201;-56
2023/03/14 01:00:11;;;;;;;7.77;3.80;;;;;;;5.29;59.78;94694.84;5008577;23;20298;-56
2023/03/14 01:02:37;;;;;;;5.97;3.43;;;;;;;5.29;60.60;94687.28;5008518;28;20198;-56
2023/03/14 01:05:02;;;;;;;5.80;3.80;;;;;;;5.15;61.42;94671.41;5008129;28;20214;-55
2023/03/14 01:07:28;;;;;;;8.37;3.50;;;;;;;5.04;61.30;94669.56;5008076;28;20199;-56
2023/03/14 01:09:53;;;;;;;4.63;3.60;;;;;;;4.90;61.78;94657.03;5008139;28;20218;-54
2023/03/14 01:12:18;;;;;;;5.83;3.50;;;;;;;4.86;61.88;94660.63;5008213;28;20186;-54
2023/03/14 01:14:44;;;;;;;5.73;3.97;;;;;;;4.70;62.14;94648.19;5008299;28;20245;-53
2023/03/14 01:17:09;;;;;;;6.67;4.33;;;;;;;4.65;63.22;94630.03;5007976;28;20190;-53
2023/03/14 01:19:35;;;;;;;6.80;3.93;;;;;;;4.64;62.96;94641.03;5008291;28;20214;-55
2023/03/14 01:22:00;;;;;;;7.73;4.47;;;;;;;4.66;63.13;94638.41;5008072;28;20189;-53
2023/03/14 01:24:25;;;;;;;8.80;5.00;;;;;;;4.38;64.54;94590.69;5008087;28;20641;-53
2023/03/14 01:26:51;;;;;;;9.60;5.03;;;;;;;4.39;64.60;94595.63;5008098;28;20193;-55
2023/03/14 01:29:16;;;;;;;10.27;5.30;;;;;;;4.32;65.40;94579.31;5007857;28;20258;-56
2023/03/14 01:31:42;;;;;;;7.53;4.40;;;;;;;4.36;65.79;94574.88;5008334;28;20188;-57
2023/03/14 01:34:07;;;;;;;6.43;4.10;;;;;;;4.36;64.26;94600.84;5007555;28;20331;-56
2023/03/14 01:36:33;;;;;;;5.90;3.87;;;;;;;4.41;64.54;94598.03;5006707;28;20687;-54
2023/03/14 01:38:58;;;;;;;7.83;4.60;;;;;;;4.50;64.36;94585.72;5007951;28;20266;-54
2023/03/14 01:41:25;;;;;;;4.63;3.53;;;;;;;4.61;63.58;94620.25;5007237;28;20190;-53
2023/03/14 01:43:51;;;;;;;6.30;4.07;;;;;;;4.75;62.93;94618.50;5005997;28;20663;-57
2023/03/14 01:46:38;;;;;;;5.73;3.17;;;;;;;4.71;62.83;94612.03;5007554;28;20268;-57
2023/03/14 01:49:30;;;;;;;4.73;3.80;;;;;;;4.59;62.88;94592.66;5007398;28;20303;-58
2023/03/14 01:52:16;;;;;;;4.70;3.77;;;;;;;4.69;63.76;94595.41;5007733;28;20327;-58
2023/03/14 01:54:46;;;;;;;4.80;3.60;;;;;;;4.69;63.18;94601.25;5007479;28;20221;-54
2023/03/14 01:57:17;;;;;;;6.97;3.90;;;;;;;4.66;64.87;94568.75;5007278;28;20247;-54
2023/03/14 01:59:48;;;;;;;4.63;3.27;;;;;;;4.65;65.00;94577.19;5006272;28;20290;-53
2023/03/14 02:02:15;;;;;;;5.20;3.23;;;;;;;4.73;65.19;94569.13;5007522;28;20315;-56
2023/03/14 02:04:42;;;;;;;5.27;3.77;;;;;;;4.72;64.42;94580.13;5007528;28;20213;-55
2023/03/14 02:07:30;;;;;;;8.87;3.30;;;;;;;4.87;63.71;94595.06;5007363;28;20339;-55
2023/03/14 02:09:57;;;;;;;6.80;3.07;;;;;;;4.81;64.30;94587.09;5007337;28;20232;-58
2023/03/14 02:12:23;;;;;;;4.80;3.40;;;;;;;4.72;65.54;94565.84;5005896;28;20199;-57
2023/03/14 02:14:48;;;;;;;5.17;3.83;;;;;;;4.62;64.92;94564.81;5007118;28;20223;-56
2023/03/14 02:17:17;;;;;;;9.33;5.13;;;;;;;4.69;63.74;94583.63;5007149;28;20194;-58
2023/03/14 02:19:54;;;;;;;10.10;6.17;;;;;;;4.48;65.06;94562.34;5007591;28;20249;-57
2023/03/14 02:22:20;;;;;;;10.37;6.27;;;;;;;4.00;65.96;94513.34;5007324;28;20216;-56
2023/03/14 02:24:48;;;;;;;12.17;6.77;;;;;;;4.17;66.89;94542.50;5007395;28;20215;-57
2023/03/14 02:27:19;;;;;;;10.10;6.60;;;;;;;4.16;66.96;94535.88;5006915;28;20666;-54
2023/03/14 02:29:59;;;;;;;13.83;8.13;;;;;;;4.01;68.67;94504.09;5006923;28;20211;-55
2023/03/14 02:32:27;;;;;;;14.83;7.53;;;;;;;4.07;68.32;94511.28;5007165;28;20233;-55
2023/03/14 02:34:57;;;;;;;12.07;7.50;;;;;;;4.11;69.34;94507.66;5006986;28;20220;-55
2023/03/14 02:37:27;;;;;;;12.93;8.13;;;;;;;4.15;69.38;94492.28;5006823;28;20280;-56
2023/03/14 02:39:52;;;;;;;17.83;9.10;;;;;;;4.23;70.05;94495.13;5006754;28;20217;-54
2023/03/14 02:42:18;;;;;;;15.20;9.57;;;;;;;4.25;70.18;94505.09;5006757;28;20656;-58
2023/03/14 02:44:59;;;;;;;22.93;8.77;;;;;;;4.06;70.75;94497.09;5007143;28;20215;-54
2023/03/14 02:47:30;;;;;;;20.13;8.73;;;;;;;3.80;71.74;94486.09;5008875;28;20274;-54
2023/03/14 02:50:03;;;;;;;13.47;8.60;;;;;;;3.55;72.79;94470.13;5010172;28;20244;-57
2023/03/14 02:52:28;;;;;;;15.13;8.57;;;;;;;3.42;75.21;94443.22;5009981;28;20204;-57
2023/03/14 02:54:54;;;;;;;13.40;8.97;;;;;;;3.43;73.55;94472.44;5009654;28;20221;-58
2023/03/14 02:57:19;;;;;;;18.00;8.73;;;;;;;3.51;73.98;94473.72;5009787;28;20200;-58
2023/03/14 02:59:44;;;;;;;19.43;9.37;;;;;;;3.39;73.29;94485.31;5009749;28;20262;-58
2023/03/14 03:02:10;;;;;;;15.70;8.77;;;;;;;3.59;73.34;94482.41;5009748;28;20190;-57
2023/03/14 03:04:35;;;;;;;22.10;9.57;;;;;;;3.61;74.76;94472.25;5009648;28;20227;-52
2023/03/14 03:07:00;;;;;;;13.37;8.40;;;;;;;3.79;73.92;94483.69;5009759;28;20186;-58
2023/03/14 03:09:26;;;;;;;15.93;8.60;;;;;;;3.87;75.82;94458.91;5009831;28;20286;-58
2023/03/14 03:11:51;;;;;;;15.57;8.53;;;;;;;4.04;73.05;94498.91;5010063;28;20692;-57
2023/03/14 03:14:17;;;;;;;14.70;9.17;;;;;;;4.05;73.03;94490.44;5009860;28;20217;-57
2023/03/14 03:16:42;;;;;;;19.17;9.80;;;;;;;4.07;72.74;94503.72;5009405;28;20198;-55
2023/03/14 03:19:07;;;;;;;15.30;9.53;;;;;;;3.86;73.48;94477.38;5008186;28;20268;-56
2023/03/14 03:21:34;;;;;;;14.87;9.70;;;;;;;3.97;73.49;94480.06;5009298;28;20187;-57
2023/03/14 03:23:59;;;;;;;14.60;9.13;;;;;;;3.97;73.73;94480.06;5009513;28;20206;-56
2023/03/14 03:26:25;;;;;;;18.20;8.93;;;;;;;4.02;74.15;94480.59;5008379;28;20197;-58
2023/03/14 03:28:51;;;;;;;14.30;9.00;;;;;;;4.00;73.96;94488.19;5009139;28;20231;-56
2023/03/14 03:31:17;;;;;;;14.77;8.87;;;;;;;4.09;73.20;94499.41;5009378;28;20229;-56
2023/03/14 03:33:42;;;;;;;15.20;9.10;;;;;;;4.18;72.05;94506.41;5009534;28;20226;-58
2023/03/14 03:36:08;;;;;;;15.93;8.97;;;;;;;4.10;73.27;94488.47;5009373;28;20255;-58
2023/03/14 03:38:34;;;;;;;16.83;10.03;;;;;;;4.07;73.80;94478.56;5009340;28;20260;-59
2023/03/14 03:41:05;;;;;;;17.13;9.27;;;;;;;4.14;73.42;94479.81;5009076;28;20542;-58
2023/03/14 03:43:31;;;;;;;15.93;8.83;;;;;;;4.11;73.24;94490.88;5009175;28;20225;-58
2023/03/14 03:45:57;;;;;;;17.03;9.10;;;;;;;4.04;74.69;94473.75;5008968;28;20637;-58
2023/03/14 03:48:22;;;;;;;14.83;9.07;;;;;;;3.86;74.06;94489.94;5009137;28;20226;-57
2023/03/14 03:50:48;;;;;;;14.57;8.77;;;;;;;3.97;73.27;94500.16;5009111;28;20222;-53
2023/03/14 03:53:13;;;;;;;15.90;8.13;;;;;;;4.15;72.88;94504.06;5009109;28;20231;-57
2023/03/14 03:55:42;;;;;;;17.53;9.57;;;;;;;3.99;74.33;94493.34;5009189;28;20251;-58
2023/03/14 03:58:07;;;;;;;17.47;10.30;;;;;;;4.02;73.38;94510.75;5008169;28;20268;-57
2023/03/14 04:00:33;;;;;;;19.60;9.57;;;;;;;3.93;73.21;94496.22;5009058;28;20320;-58
2023/03/14 04:02:59;;;;;;;14.93;8.97;;;;;;;3.97;73.51;94513.56;5007617;28;20245;-53
2023/03/14 04:05:24;;;;;;;15.40;9.33;;;;;;;3.64;73.36;94502.22;5008958;28;20237;-58
2023/03/14 04:07:50;;;;;;;15.80;8.47;;;;;;;3.78;75.66;94477.03;5009096;28;20245;-58
2023/03/14 04:10:15;;;;;;;18.40;9.43;;;;;;;3.80;75.01;94497.88;5008806;28;20235;-59
2023/03/14 04:12:41;;;;;;;13.87;8.30;;;;;;;3.81;74.37;94504.53;5008833;28;20186;-57
2023/03/14 04:15:07;;;;;;;18.07;8.40;;;;;;;3.90;72.30;94524.09;5007501;28;20253;-57
2023/03/14 04:17:33;;;;;;;12.93;8.40;;;;;;;3.76;73.13;94519.06;5008791;28;20212;-56
2023/03/14 04:19:58;;;;;;;15.80;8.67;;;;;;;3.79;73.85;94508.84;5009088;28;20217;-57
2023/03/14 04:22:23;;;;;;;19.43;8.80;;;;;;;3.72;73.62;94503.38;5008827;28;20212;-54
2023/03/14 04:24:49;;;;;;;13.93;7.77;;;;;;;3.63;73.95;94488.84;5008577;28;20584;-53
2023/03/14 04:27:14;;;;;;;14.33;7.87;;;;;;;3.66;74.94;94488.66;5008533;28;20236;-53
2023/03/14 04:29:41;;;;;;;12.50;7.93;;;;;;;3.86;74.01;94494.97;5008209;28;20232;-53
2023/03/14 04:32:06;;;;;;;15.90;8.50;;;;;;;3.79;74.61;94478.66;5008661;28;20183;-53
2023/03/14 04:34:32;;;;;;;16.30;8.17;;;;;;;3.93;73.18;94488.69;5008452;28;20214;-58
2023/03/14 04:36:57;;;;;;;11.83;8.43;;;;;;;3.72;74.71;94459.81;5008379;28;20188;-53
2023/03/14 04:39:23;;;;;;;12.97;8.23;;;;;;;3.61;74.90;94469.75;5008834;28;20297;-59
2023/03/14 04:41:48;;;;;;;13.20;7.90;;;;;;;3.74;75.81;94455.50;5008507;28;20191;-58
2023/03/14 04:44:13;;;;;;;15.53;8.40;;;;;;;3.59;73.94;94459.78;5008814;28;20205;-57
2023/03/14 04:46:39;;;;;;;15.80;9.23;;;;;;;3.63;74.84;94452.88;5008538;28;20261;-58
2023/03/14 04:49:04;;;;;;;17.70;9.03;;;;;;;3.67;74.78;94455.09;5008145;28;20228;-54
2023/03/14 04:51:29;;;;;;;14.43;7.87;;;;;;;3.70;75.41;94454.91;5008450;28;20186;-56
2023/03/14 04:53:55;;;;;;;14.03;8.57;;;;;;;3.82;75.05;94460.88;5008284;28;20743;-56
2023/03/14 04:56:21;;;;;;;12.10;8.37;;;;;;;3.75;74.60;94452.09;5008313;28;20191;-56
2023/03/14 04:58:46;;;;;;;13.80;8.37;;;;;;;3.93;74.01;94468.56;5008429;28;20211;-56
2023/03/14 05:01:11;;;;;;;14.27;8.73;;;;;;;3.86;74.10;94462.28;5008174;28;20651;-54
2023/03/14 05:03:37;;;;;;;15.80;9.13;;;;;;;3.94;74.29;94467.69;5008149;28;20258;-53
2023/03/14 05:06:04;;;;;;;18.43;10.13;;;;;;;4.05;74.51;94460.25;5008140;28;20200;-55
2023/03/14 05:08:30;;;;;;;14.13;9.23;;;;;;;4.06;74.29;94470.22;5008081;28;20269;-54
2023/03/14 05:10:57;;;;;;;13.03;9.57;;;;;;;3.88;74.62;94448.72;5008033;28;20727;-55
2023/03/14 05:13:23;;;;;;;17.37;10.23;;;;;;;3.93;75.17;94458.50;5008103;28;20195;-54
2023/03/14 05:15:50;;;;;;;19.47;9.40;;;;;;;4.07;73.99;94479.38;5007919;28;20333;-55
2023/03/14 05:18:16;;;;;;;18.20;9.77;;;;;;;4.01;73.82;94473.94;5006632;28;20238;-54
2023/03/14 05:20:43;;;;;;;16.27;9.87;;;;;;;3.99;74.07;94468.19;5008238;28;20653;-54
2023/03/14 05:23:09;;;;;;;18.13;10.50;;;;;;;4.22;74.26;94470.88;5007984;28;20695;-54
2023/03/14 05:25:34;;;;;;;13.63;8.70;;;;;;;4.29;75.68;94448.66;5007904;28;20230;-54
2023/03/14 05:27:59;;;;;;;14.73;9.53;;;;;;;4.49;72.77;94496.00;5007658;28;20218;-53
2023/03/14 05:30:25;;;;;;;14.17;9.40;;;;;;;4.62;71.87;94504.38;5007731;28;20234;-54
2023/03/14 05:32:50;;;;;;;34.63;11.23;;;;;;;4.49;72.84;94488.44;5007966;28;20197;-55
2023/03/14 05:35:15;;;;;;;17.63;9.63;;;;;;;4.25;73.64;94468.19;5007815;28;20710;-54
2023/03/14 05:37:41;;;;;;;15.07;8.30;;;;;;;4.37;72.44;94494.25;5007945;28;20198;-53
2023/03/14 05:40:08;;;;;;;17.00;7.97;;;;;;;4.51;72.00;94505.97;5007634;28;20210;-54
2023/03/14 05:42:34;;;;;;;9.70;6.77;;;;;;;4.25;70.96;94525.22;5007623;28;20195;-58
2023/03/14 05:44:59;;;;;;;9.13;5.00;;;;;;;4.28;70.94;94529.25;5008031;28;20246;-58
2023/03/14 05:47:25;;;;;;;10.13;4.67;;;;;;;4.20;71.25;94519.69;5007453;28;20649;-58
2023/03/14 05:49:50;;;;;;;7.50;4.70;;;;;;;4.41;71.02;94518.31;5007235;28;20610;-59
2023/03/14 05:52:16;;;;;;;12.97;4.57;;;;;;;4.54;69.86;94534.28;5007657;28;20242;-59
2023/03/14 05:54:42;;;;;;;6.10;4.13;;;;;;;4.58;70.18;94535.69;5007511;28;20207;-57
2023/03/14 05:57:07;;;;;;;9.90;4.80;;;;;;;4.66;70.46;94525.13;5005964;28;20243;-59
2023/03/14 05:59:32;;;;;;;14.70;5.97;;;;;;;4.61;70.30;94529.63;5007134;28;20236;-60
2023/03/14 06:01:58;;;;;;;8.73;4.47;;;;;;;4.78;70.18;94540.25;5007211;28;20195;-59
2023/03/14 06:04:24;;;;;;;13.23;5.50;;;;;;;4.85;70.25;94531.41;5007055;28;20221;-60
2023/03/14 06:06:49;;;;;;;8.10;4.63;;;;;;;4.64;69.88;94492.50;5005894;28;20203;-60
2023/03/14 06:09:15;;;;;;;10.30;5.20;;;;;;;5.03;68.18;94567.16;5007324;28;20280;-60
2023/03/14 06:11:41;;;;;;;8.80;5.50;;;;;;;4.95;68.46;94556.78;5007100;28;20194;-57
2023/03/14 06:14:06;;;;;;;9.07;5.10;;;;;;;4.93;68.04;94556.88;5007343;28;20703;-59
2023/03/14 06:16:32;;;;;;;22.77;6.70;;;;;;;5.03;67.33;94565.47;5007146;28;20681;-59
2023/03/14 06:18:57;;;;;;;12.80;5.80;;;;;;;5.02;68.16;94560.53;5007159;28;20214;-59
2023/03/14 06:21:23;;;;;;;8.53;5.00;;;;;;;4.91;68.58;94536.03;5007732;28;20196;-58
2023/03/14 06:23:49;;;;;;;10.30;5.97;;;;;;;4.97;67.90;94544.91;5010105;28;20221;-58
2023/03/14 06:26:14;;;;;;;9.67;6.17;;;;;;;5.07;67.84;94566.06;5010059;28;20272;-58
2023/03/14 06:28:40;;;;;;;12.97;5.67;;;;;;;4.97;68.13;94555.78;5010193;28;20226;-60
2023/03/14 06:31:06;;;;;;;10.17;5.80;;;;;;;5.01;68.84;94534.53;5010109;28;20296;-59
2023/03/14 06:33:32;;;;;;;9.90;6.40;;;;;;;5.01;67.74;94564.75;5009952;28;20204;-59
2023/03/14 06:35:57;;;;;;;8.40;5.27;;;;;;;5.18;65.66;94600.66;5009864;28;20191;-57
2023/03/14 06:38:22;;;;;;;11.20;6.27;;;;;;;5.06;66.95;94579.59;5009988;28;20208;-58
2023/03/14 06:40:48;;;;;;;10.13;6.23;;;;;;;5.06;65.71;94603.06;5009924;28;20217;-58
2023/03/14 06:43:13;;;;;;;9.50;5.63;;;;;;;5.21;66.57;94583.66;5010094;28;20611;-56
2023/03/14 06:45:39;;;;;;;10.73;6.10;;;;;;;5.35;65.49;94596.16;5009771;28;20217;-56
2023/03/14 06:48:05;;;;;;;7.87;5.13;;;;;;;5.52;63.81;94625.28;5009772;28;20230;-56
2023/03/14 06:50:30;;;;;;;9.20;5.53;;;;;;;5.54;63.31;94626.78;5009887;28;20300;-57
2023/03/14 06:52:56;;;;;;;9.93;5.30;;;;;;;5.77;63.31;94632.84;5009901;28;20243;-57
2023/03/14 06:55:21;;;;;;;10.80;5.47;;;;;;;5.66;62.46;94635.25;5008340;28;20222;-54
2023/03/14 06:57:47;;;;;;;13.70;5.53;;;;;;;5.78;62.41;94637.78;5008344;28;20327;-55
2023/03/14 07:00:13;;;;;;;9.23;5.37;;;;;;;5.86;62.18;94639.81;5009520;28;20218;-53
2023/03/14 07:02:39;;;;;;;9.10;5.60;;;;;;;5.74;61.48;94630.50;5009504;28;20281;-55
2023/03/14 07:05:05;;;;;;;14.57;6.03;;;;;;;5.68;62.48;94620.84;5009783;28;20218;-53
2023/03/14 07:07:31;;;;;;;6.80;4.83;;;;;;;5.78;62.52;94616.78;5009761;28;20194;-54
2023/03/14 07:09:56;;;;;;;10.87;5.27;;;;;;;5.90;62.17;94610.94;5009491;28;20713;-54
2023/03/14 07:12:23;;;;;;;8.03;5.47;;;;;;;5.99;63.44;94591.88;5009845;28;20572;-53
2023/03/14 07:14:48;;;;;;;13.33;6.97;;;;;;;6.01;64.10;94580.78;5008203;28;20248;-54
2023/03/14 07:17:14;;;;;;;12.90;7.43;;;;;;;6.00;63.99;94574.09;5009888;28;20182;-54
2023/03/14 07:19:39;;;;;;;17.00;7.30;;;;;;;6.36;63.43;94583.41;5009762;28;20289;-54
2023/03/14 07:22:06;;;;;;;14.00;8.03;;;;;;;6.49;62.42;94597.59;5009626;28;20236;-53
2023/03/14 07:24:31;;;;;;;12.97;7.23;;;;;;;6.78;62.00;94621.63;5009605;28;20264;-55
2023/03/14 07:26:56;;;;;;;10.17;6.50;;;;;;;6.90;61.08;94642.69;5009667;28;20612;-54
2023/03/14 07:29:22;;;;;;;10.67;6.90;;;;;;;6.94;59.98;94650.84;5009728;28;20279;-58
2023/03/14 07:31:47;;;;;;;11.23;6.83;;;;;;;6.96;61.07;94622.03;5009431;28;20241;-58
2023/03/14 07:34:13;;;;;;;16.83;7.57;;;;;;;6.57;60.62;94602.09;5008461;28;20711;-58
2023/03/14 07:36:38;;;;;;;12.30;7.27;;;;;;;6.75;60.67;94626.88;5008226;28;20191;-57
2023/03/14 07:39:04;;;;;;;14.17;7.83;;;;;;;7.30;72.42;94425.72;5009943;28;20769;-54
2023/03/14 07:41:30;;;;;;;10.50;7.77;;;;;;;7.59;60.74;94627.47;4992319;28;20286;-54
2023/03/14 07:43:55;;;;;;;15.53;8.00;;;;;;;7.73;59.63;94640.84;5008103;28;20310;-55
2023/03/14 07:46:21;;;;;;;13.73;8.10;;;;;;;7.72;57.69;94660.28;5008341;28;20274;-54
2023/03/14 07:48:47;;;;;;;11.90;7.47;;;;;;;7.77;58.20;94649.81;5007748;28;20700;-55
2023/03/14 07:51:12;;;;;;;14.90;8.33;;;;;;;7.67;56.53;94671.66;5009324;28;20584;-57
2023/03/14 07:53:39;;;;;;;12.90;9.27;;;;;;;7.42;56.89;94673.44;5009190;28;20582;-54
2023/03/14 07:56:05;;;;;;;16.63;9.27;;;;;;;7.56;55.42;94678.28;5009260;28;20194;-55
2023/03/14 07:58:31;;;;;;;18.43;9.70;;;;;;;7.17;57.90;94633.13;5008949;28;20216;-54
2023/03/14 08:00:58;;;;;;;16.23;9.40;;;;;;;7.27;59.31;94611.31;5009258;28;20194;-54
2023/03/14 08:03:24;;;;;;;26.20;10.53;;;;;;;7.27;57.92;94648.44;5009261;28;20536;-55
2023/03/14 08:05:50;;;;;;;16.30;9.60;;;;;;;7.41;58.31;94638.16;5009033;28;20629;-56
2023/03/14 08:08:16;;;;;;;13.60;8.57;;;;;;;7.72;57.36;94650.16;5008964;28;20222;-56
2023/03/14 08:10:43;;;;;;;16.87;9.13;;;;;;;7.58;57.68;94652.88;5007761;28;20256;-54
2023/03/14 08:13:09;;;;;;;17.70;9.70;;;;;;;7.37;58.30;94629.16;5007928;28;20214;-57
2023/03/14 08:15:35;;;;;;;18.50;8.80;;;;;;;7.79;56.73;94655.56;5009001;28;20325;-58
2023/03/14 08:18:00;;;;;;;15.90;9.10;;;;;;;7.83;56.91;94651.91;5007382;28;20649;-58
2023/03/14 08:20:28;;;;;;;18.53;9.47;;;;;;;8.27;55.09;94690.72;5008805;28;20213;-58
2023/03/14 08:22:56;;;;;;;13.73;9.10;;;;;;;8.09;54.90;94686.19;5008660;28;20210;-57
2023/03/14 08:25:22;;;;;;;13.57;9.20;;;;;;;8.24;56.11;94663.06;5008587;28;20210;-57
2023/03/14 08:27:47;;;;;;;12.10;7.87;;;;;;;8.29;55.34;94677.94;5008513;28;20183;-58
2023/03/14 08:30:15;;;;;;;14.67;8.13;;;;;;;8.53;55.30;94685.41;5003297;28;20220;-57
2023/03/14 08:32:40;;;;;;;21.07;8.97;;;;;;;8.99;53.57;94713.91;4987740;28;20626;-58
2023/03/14 08:35:06;;;;;;;17.10;7.43;;;;;;;9.16;50.80;94759.88;4989235;28;20303;-56
2023/03/14 08:37:33;;;;;;;10.93;7.90;;;;;;;9.64;49.07;94775.50;4987733;28;20195;-58
2023/03/14 08:39:58;;;;;;;13.37;7.17;;;;;;;9.84;50.62;94751.88;4989217;28;20774;-55
2023/03/14 08:42:24;;;;;;;18.73;8.00;;;;;;;9.72;48.37;94778.25;4988862;28;20192;-54
2023/03/14 08:44:51;;;;;;;13.30;7.70;;;;;;;9.72;48.29;94780.78;4988723;28;20222;-54
2023/03/14 08:47:17;;;;;;;15.27;8.07;;;;;;;10.07;47.83;94783.03;4988765;28;20179;-55
2023/03/14 08:49:42;;;;;;;10.20;7.07;;;;;;;10.55;47.59;94779.06;4989531;28;20658;-54
2023/03/14 08:52:08;;;;;;;11.17;7.50;;;;;;;11.06;45.60;94811.28;5008563;28;20221;-54
2023/03/14 08:54:33;;;;;;;10.23;7.00;;;;;;;11.26;44.46;94831.56;5008759;28;20214;-54
2023/03/14 08:56:59;;;;;;;9.67;6.87;;;;;;;11.35;44.43;94820.59;5008502;28;20202;-55
2023/03/14 08:59:24;;;;;;;10.37;6.53;;;;;;;11.64;44.82;94790.91;5008080;28;20706;-55
2023/03/14 09:01:50;;;;;;;10.43;6.37;;;;;;;11.94;43.81;94807.03;5008001;28;20206;-57
2023/03/14 09:04:16;;;;;;;15.60;6.97;;;;;;;12.38;43.49;94803.91;5008112;28;20215;-55
2023/03/14 09:06:42;;;;;;;10.27;6.50;;;;;;;12.81;41.02;94845.00;5008313;28;20549;-54
2023/03/14 09:09:13;;;;;;;11.07;6.73;;;;;;;12.90;42.08;94805.91;5008393;28;20214;-54
2023/03/14 09:11:39;;;;;;;13.77;6.80;;;;;;;13.05;40.44;94837.72;5008233;28;20191;-54
2023/03/14 09:14:05;;;;;;;12.07;6.73;;;;;;;13.10;39.08;94850.88;5008335;28;20580;-54
2023/03/14 09:16:31;;;;;;;7.80;6.07;;;;;;;13.21;38.98;94827.69;5008147;28;20179;-54
2023/03/14 09:18:59;;;;;;;12.10;5.63;;;;;;;13.55;39.35;94814.38;5007391;28;20211;-54
2023/03/14 09:21:26;;;;;;;9.73;6.50;;;;;;;13.76;38.57;94814.88;5005345;28;20186;-54
2023/03/14 09:23:53;;;;;;;10.77;6.20;;;;;;;13.98;38.46;94809.34;5008170;28;20221;-55
2023/03/14 09:26:25;;;;;;;12.47;6.93;;;;;;;13.67;37.35;94815.78;5008194;28;20186;-57
2023/03/14 09:28:50;;;;;;;12.90;6.77;;;;;;;14.26;38.15;94780.19;5008000;28;20223;-55
2023/03/14 09:31:16;;;;;;;10.17;7.13;;;;;;;14.63;37.00;94783.34;5007974;28;20294;-57
2023/03/14 09:33:41;;;;;;;10.10;6.60;;;;;;;14.58;36.81;94784.75;5007877;28;20263;-57
2023/03/14 09:36:07;;;;;;;9.32;6.43;;;;;;;14.67;36.44;94774.41;5007883;28;20716;-57
2023/03/14 09:38:33;;;;;;;11.18;6.93;;;;;;;15.09;36.26;94772.69;5007843;28;20237;-57
2023/03/14 09:41:01;;;;;;;12.67;6.30;;;;;;;15.39;35.98;94775.69;5007569;28;20294;-57
2023/03/14 09:43:30;;;;;;;9.15;6.30;;;;;;;15.47;35.96;94756.03;5007754;28;20207;-57
2023/03/14 09:45:57;;;;;;;9.55;6.07;;;;;;;15.82;35.95;94753.19;5007638;28;20191;-57
2023/03/14 09:48:29;;;;;;;10.13;6.73;;;;;;;16.30;35.10;94747.25;5007429;28;20238;-59
2023/03/14 09:50:56;;;;;;;12.17;6.37;;;;;;;16.57;34.78;94752.06;5007471;28;20247;-56
2023/03/14 09:53:28;;;;;;;11.40;6.68;;;;;;;16.53;34.38;94742.28;5007484;28;20191;-59
2023/03/14 09:55:57;;;;;;;9.55;6.60;;;;;;;16.16;35.46;94703.53;5007411;28;20201;-57
2023/03/14 09:58:24;;;;;;;9.65;5.80;;;;;;;16.69;35.02;94714.81;5010377;28;20194;-58
2023/03/14 10:00:54;;;;;;;9.63;5.40;;;;;;;16.95;34.74;94724.06;5010367;28;20210;-56
2023/03/14 10:03:24;;;;;;;6.85;5.43;;;;;;;16.96;34.47;94712.78;5010464;28;20686;-58
2023/03/14 10:05:50;;;;;;;8.00;5.40;;;;;;;17.05;34.47;94704.88;5009065;28;20617;-58
2023/03/14 10:08:16;;;;;;;10.00;4.95;;;;;;;17.35;35.79;94667.31;5010579;28;20218;-57
2023/03/14 10:10:41;;;;;;;7.63;5.10;;;;;;;17.54;33.73;94718.31;5010323;28;20218;-58
2023/03/14 10:13:25;;;;;;;8.18;5.22;;;;;;;17.84;33.63;94711.50;5010309;28;20198;-57
2023/03/14 10:16:04;;;;;;;9.07;5.65;;;;;;;17.91;34.51;94676.41;5010414;28;20211;-58
2023/03/14 10:18:31;;;;;;;10.68;5.88;;;;;;;18.04;33.74;94684.34;5010234;28;20191;-57
2023/03/14 10:21:07;;;;;;;6.43;4.82;;;;;;;18.46;34.56;94660.63;5010197;28;20186;-57
2023/03/14 10:23:34;;;;;;;9.82;4.60;;;;;;;18.10;33.30;94661.28;5010371;28;20750;-58
2023/03/14 10:26:05;;;;;;;8.38;5.13;;;;;;;18.03;33.63;94652.66;5010161;28;20199;-58
2023/03/14 10:28:34;;;;;;;5.22;4.55;;;;;;;16.00;35.59;94593.28;5010080;28;20218;-59
2023/03/14 10:31:00;;;;;;;10.30;4.75;;;;;;;16.90;34.66;94615.88;5008781;28;20187;-57
2023/03/14 10:33:32;;;;;;;6.82;4.70;;;;;;;17.36;35.76;94581.53;5010354;28;20203;-58
2023/03/14 10:36:04;;;;;;;9.18;4.57;;;;;;;17.76;35.76;94585.53;5010252;28;20189;-57
2023/03/14 10:38:35;;;;;;;7.65;3.83;;;;;;;17.65;35.06;94588.56;5008740;28;20206;-58
2023/03/14 10:41:01;;;;;;;5.65;3.42;;;;;;;17.96;35.03;94574.56;5008490;28;20239;-58
2023/03/14 10:43:35;;;;;;;4.93;3.78;;;;;;;18.41;33.78;94605.31;5010012;28;20329;-59
2023/03/14 10:46:32;;;;;;;4.88;3.25;;;;;;;18.93;33.68;94605.16;5008541;28;20195;-59
2023/03/14 10:48:58;;;;;;;3.67;3.25;;;;;;;18.29;33.79;94588.72;5021798;28;20283;-58
2023/03/14 10:51:29;;;;;;;6.25;3.00;;;;;;;18.49;33.50;94590.75;5009887;28;20186;-58
2023/03/14 10:54:18;;;;;;;5.65;3.00;;;;;;;18.70;32.56;94596.78;5009708;28;20301;-59
2023/03/14 10:56:44;;;;;;;5.15;3.10;;;;;;;18.60;32.24;94593.69;5010008;28;20224;-58
2023/03/14 10:59:15;;;;;;;5.60;3.42;;;;;;;18.06;32.97;94575.13;5008272;28;20623;-58
2023/03/14 11:02:13;;;;;;;5.45;2.80;;;;;;;18.26;34.71;94519.56;5009945;28;20286;-55
2023/03/14 11:05:05;;;;;;;6.15;3.30;;;;;;;18.43;32.87;94559.63;5010066;28;20684;-58
2023/03/14 11:07:42;;;;;;;5.03;2.95;;;;;;;18.76;31.81;94567.72;5014827;28;20210;-58
2023/03/14 11:10:19;;;;;;;5.57;3.03;;;;;;;18.82;32.48;94558.47;5009523;28;20222;-60
2023/03/14 11:13:12;;;;;;;6.22;3.17;;;;;;;19.23;32.45;94549.94;5009674;28;20198;-59
2023/03/14 11:16:15;;;;;;;5.10;3.05;;;;;;;19.39;32.21;94538.63;5009140;28;20692;-58
2023/03/14 11:19:19;;;;;;;4.20;2.95;;;;;;;19.50;31.69;94547.63;5009397;28;20198;-59
2023/03/14 11:22:15;;;;;;;3.03;2.70;;;;;;;19.74;31.00;94558.31;5045864;28;20205;-58
2023/03/14 11:24:56;;;;;;;16.23;7.00;;;;;;;19.47;31.04;94535.91;5009876;28;20233;-58
2023/03/14 11:27:27;;;;;;;3.33;2.70;;;;;;;20.03;31.18;94527.16;5009772;28;20195;-59
2023/03/14 11:30:09;;;;;;;6.53;3.30;;;;;;;20.31;29.95;94542.63;5009724;28;20255;-59
2023/03/14 11:33:03;;;;;;;3.22;2.75;;;;;;;20.62;30.54;94524.88;5009655;28;20236;-62
2023/03/14 11:35:45;;;;;;;5.97;2.75;;;;;;;20.50;29.65;94543.69;5009201;28;20234;-58
2023/03/14 11:38:46;;;;;;;6.00;3.22;;;;;;;20.23;30.47;94501.47;5009282;28;20236;-58